createdAt,value
2022-08-05T00:02:50.742Z,5.10
2022-08-05T00:06:04.801Z,5.40
2022-08-05T00:08:48.526Z,5.25
2022-08-05T00:11:49.010Z,5.30
2022-08-05T00:14:44.331Z,6.22
2022-08-05T00:17:33.780Z,5.78
2022-08-05T00:20:28.925Z,7.30
2022-08-05T00:23:17.826Z,6.15
2022-08-05T00:26:26.202Z,6.65
2022-08-05T00:29:14.607Z,7.63
2022-08-05T00:32:13.059Z,6.85
2022-08-05T00:35:07.660Z,10.77
2022-08-05T00:37:57.567Z,6.90
2022-08-05T00:40:59.923Z,8.40
2022-08-05T00:43:50.046Z,7.50
2022-08-05T00:46:42.682Z,9.18
2022-08-05T00:49:32.640Z,9.32
2022-08-05T00:52:28.332Z,7.88
2022-08-05T00:55:18.952Z,8.10
2022-08-05T00:58:07.479Z,8.38
2022-08-05T01:00:59.797Z,8.88
2022-08-05T01:03:50.059Z,10.63
2022-08-05T01:06:38.628Z,8.55
2022-08-05T01:09:30.369Z,8.68
2022-08-05T01:12:22.462Z,8.88
2022-08-05T01:15:35.121Z,8.27
2022-08-05T01:18:26.044Z,7.97
2022-08-05T01:21:25.654Z,9.68
2022-08-05T01:24:53.199Z,8.80
2022-08-05T01:27:59.639Z,7.85
2022-08-05T01:30:55.387Z,7.70
2022-08-05T01:33:53.517Z,8.65
2022-08-05T01:36:46.966Z,9.32
2022-08-05T01:39:47.718Z,8.88
2022-08-05T01:42:39.025Z,9.52
2022-08-05T01:45:34.988Z,7.25
2022-08-05T01:48:35.065Z,10.75
2022-08-05T01:51:24.693Z,10.80
2022-08-05T01:54:20.123Z,8.48
2022-08-05T01:58:10.299Z,8.80
2022-08-05T02:00:30.721Z,8.10
2022-08-05T02:03:31.786Z,8.50
2022-08-05T02:06:37.864Z,8.48
2022-08-05T02:09:28.075Z,8.27
2022-08-05T02:12:22.858Z,8.82
2022-08-05T02:15:19.904Z,9.02
2022-08-05T02:18:32.364Z,8.95
2022-08-05T02:21:29.321Z,9.50
2022-08-05T02:24:31.824Z,8.55
2022-08-05T02:27:29.982Z,9.70
2022-08-05T02:30:38.485Z,16.98
2022-08-05T02:33:45.061Z,10.20
2022-08-05T02:36:43.400Z,11.95
2022-08-05T02:39:37.483Z,10.63
2022-08-05T02:42:35.957Z,12.05
2022-08-05T02:45:26.203Z,10.30
2022-08-05T02:48:18.088Z,10.95
2022-08-05T02:51:07.428Z,10.77
2022-08-05T02:54:03.350Z,13.82
2022-08-05T02:56:53.231Z,11.07
2022-08-05T02:59:50.322Z,9.77
2022-08-05T03:02:42.632Z,12.35
2022-08-05T03:06:53.647Z,11.82
2022-08-05T03:08:42.665Z,10.45
2022-08-05T03:11:54.823Z,11.60
2022-08-05T03:14:46.024Z,11.50
2022-08-05T03:17:41.598Z,12.30
2022-08-05T03:20:33.168Z,12.60
2022-08-05T03:23:24.004Z,11.13
2022-08-05T03:26:31.844Z,11.90
2022-08-05T03:29:22.353Z,10.20
2022-08-05T03:32:11.181Z,13.43
2022-08-05T03:35:00.767Z,11.32
2022-08-05T03:37:49.434Z,9.82
2022-08-05T03:40:45.218Z,10.65
2022-08-05T03:44:07.992Z,10.52
2022-08-05T03:46:45.733Z,14.57
2022-08-05T03:49:51.397Z,10.63
2022-08-05T03:54:59.203Z,9.07
2022-08-05T03:56:17.154Z,10.43
2022-08-05T03:59:20.184Z,11.98
2022-08-05T04:02:17.371Z,7.90
2022-08-05T04:05:09.817Z,10.73
2022-08-05T04:07:59.069Z,7.90
2022-08-05T04:10:47.783Z,9.95
2022-08-05T04:13:50.920Z,10.20
2022-08-05T04:16:41.638Z,8.82
2022-08-05T04:19:31.660Z,8.05
2022-08-05T04:22:20.411Z,7.18
2022-08-05T04:25:10.784Z,9.00
2022-08-05T04:28:02.785Z,10.40
2022-08-05T04:30:54.327Z,9.27
2022-08-05T04:34:18.526Z,8.00
2022-08-05T04:36:52.481Z,10.50
2022-08-05T04:39:40.956Z,9.75
2022-08-05T04:42:29.591Z,12.80
2022-08-05T04:45:22.961Z,11.20
2022-08-05T04:48:27.706Z,8.63
2022-08-05T04:51:19.628Z,8.90
2022-08-05T04:54:14.820Z,11.15
2022-08-05T04:57:03.348Z,10.82
2022-08-05T04:59:52.089Z,10.88
2022-08-05T05:02:43.101Z,11.80
2022-08-05T05:05:31.862Z,11.85
2022-08-05T05:08:30.144Z,9.18
2022-08-05T05:11:20.248Z,9.05
2022-08-05T05:14:09.399Z,7.05
2022-08-05T05:17:07.501Z,9.82
2022-08-05T05:19:57.951Z,9.05
2022-08-05T05:22:48.456Z,8.38
2022-08-05T05:25:40.990Z,7.47
2022-08-05T05:28:32.879Z,9.43
2022-08-05T05:31:22.811Z,7.90
2022-08-05T05:34:13.560Z,11.88
2022-08-05T05:37:04.044Z,7.50
2022-08-05T05:39:54.128Z,10.85
2022-08-05T05:42:42.568Z,9.52
2022-08-05T05:45:37.037Z,10.45
2022-08-05T05:48:36.712Z,7.95
2022-08-05T05:51:28.042Z,9.95
2022-08-05T05:54:16.505Z,7.57
2022-08-05T05:57:05.981Z,8.80
2022-08-05T06:00:02.293Z,8.77
2022-08-05T06:03:02.297Z,8.15
2022-08-05T06:05:54.180Z,9.18
2022-08-05T06:08:44.373Z,7.38
2022-08-05T06:11:39.444Z,6.90
2022-08-05T06:14:28.967Z,6.20
2022-08-05T06:17:32.038Z,8.07
2022-08-05T06:20:28.070Z,7.05
2022-08-05T06:23:17.208Z,6.20
2022-08-05T06:26:13.587Z,10.32
2022-08-05T06:29:43.047Z,7.47
2022-08-05T06:32:26.386Z,6.97
2022-08-05T06:36:03.058Z,7.22
2022-08-05T06:38:35.643Z,6.38
2022-08-05T06:41:25.292Z,5.68
2022-08-05T06:44:13.644Z,8.30
2022-08-05T06:47:03.907Z,7.45
2022-08-05T06:50:02.084Z,8.07
2022-08-05T06:52:58.873Z,9.38
2022-08-05T06:55:53.844Z,8.45
2022-08-05T06:58:43.288Z,6.72
2022-08-05T07:01:35.586Z,6.00
2022-08-05T07:04:25.121Z,6.57
2022-08-05T07:07:23.878Z,5.57
2022-08-05T07:10:32.395Z,5.80
2022-08-05T07:13:57.628Z,6.93
2022-08-05T07:17:59.875Z,5.00
2022-08-05T07:23:09.013Z,5.28
2022-08-05T07:26:18.362Z,9.70
2022-08-05T07:29:12.974Z,5.47
2022-08-05T07:32:01.403Z,5.63
2022-08-05T07:34:57.987Z,6.25
2022-08-05T07:37:47.320Z,6.68
2022-08-05T07:40:35.762Z,6.28
2022-08-05T07:43:24.187Z,5.60
2022-08-05T07:46:24.620Z,7.05
2022-08-05T07:49:14.259Z,4.50
2022-08-05T07:52:02.656Z,6.68
2022-08-05T07:54:51.808Z,4.18
2022-08-05T07:57:57.402Z,7.60
2022-08-05T08:00:50.704Z,5.25
2022-08-05T08:03:44.462Z,9.23
2022-08-05T08:06:33.383Z,4.10
2022-08-05T08:09:24.150Z,6.55
2022-08-05T08:12:37.548Z,3.88
2022-08-05T08:16:35.915Z,5.93
2022-08-05T08:18:34.365Z,4.78
2022-08-05T08:21:27.224Z,6.57
2022-08-05T08:24:15.584Z,5.60
2022-08-05T08:27:06.950Z,3.45
2022-08-05T08:30:03.934Z,4.30
2022-08-05T08:33:13.960Z,5.00
2022-08-05T08:36:29.837Z,3.97
2022-08-05T08:39:15.825Z,4.25
2022-08-05T08:42:10.806Z,3.70
2022-08-05T08:45:24.724Z,5.95
2022-08-05T08:48:41.590Z,4.72
2022-08-05T08:52:03.213Z,3.97
2022-08-05T08:54:38.360Z,3.95
2022-08-05T08:57:42.284Z,3.20
2022-08-05T09:00:42.605Z,4.80
2022-08-05T09:03:44.870Z,5.03
2022-08-05T09:06:36.167Z,4.80
2022-08-05T09:09:24.939Z,5.43
2022-08-05T09:12:20.475Z,6.10
2022-08-05T09:15:15.684Z,4.18
2022-08-05T09:18:04.200Z,4.32
2022-08-05T09:20:53.484Z,5.22
2022-08-05T09:23:43.795Z,4.10
2022-08-05T09:26:32.968Z,6.88
2022-08-05T09:29:31.076Z,4.53
2022-08-05T09:32:41.685Z,5.15
2022-08-05T09:35:28.615Z,4.80
2022-08-05T09:38:27.224Z,4.75
2022-08-05T09:41:16.311Z,5.95
2022-08-05T09:44:05.086Z,4.32
2022-08-05T09:47:10.244Z,5.82
2022-08-05T09:50:03.469Z,6.63
2022-08-05T09:52:59.626Z,5.95
2022-08-05T09:55:58.615Z,4.72
2022-08-05T09:58:58.580Z,5.13
2022-08-05T10:01:47.903Z,6.70
2022-08-05T10:04:48.339Z,7.10
2022-08-05T10:08:36.917Z,7.75
2022-08-05T10:11:04.450Z,5.85
2022-08-05T10:13:54.596Z,7.25
2022-08-05T10:16:52.817Z,5.75
2022-08-05T10:20:04.274Z,8.38
2022-08-05T10:22:52.486Z,6.97
2022-08-05T10:25:41.462Z,5.85
2022-08-05T10:28:31.443Z,8.45
2022-08-05T10:33:02.200Z,7.47
2022-08-05T10:34:31.077Z,8.15
2022-08-05T10:37:20.074Z,9.52
2022-08-05T10:40:19.884Z,6.30
2022-08-05T10:43:35.823Z,6.50
2022-08-05T10:46:24.977Z,9.65
2022-08-05T10:49:16.798Z,7.72
2022-08-05T10:52:10.473Z,6.97
2022-08-05T10:55:06.149Z,8.40
2022-08-05T10:58:14.955Z,7.38
2022-08-05T11:01:08.334Z,5.35
2022-08-05T11:04:09.135Z,6.65
2022-08-05T11:07:11.953Z,5.82
2022-08-05T11:10:03.790Z,5.68
2022-08-05T11:13:01.044Z,4.68
2022-08-05T11:16:11.143Z,5.75
2022-08-05T11:20:17.345Z,4.70
2022-08-05T11:22:42.280Z,7.38
2022-08-05T11:26:04.310Z,4.95
2022-08-05T11:28:46.105Z,5.72
2022-08-05T11:31:57.835Z,9.05
2022-08-05T11:34:51.637Z,3.60
2022-08-05T11:38:26.798Z,5.18
2022-08-05T11:41:34.276Z,4.63
2022-08-05T11:44:40.592Z,3.03
2022-08-05T11:47:48.433Z,2.78
2022-08-05T11:50:40.197Z,2.20
2022-08-05T11:53:29.290Z,2.47
2022-08-05T11:56:50.127Z,2.00
2022-08-05T11:59:49.451Z,2.85
2022-08-05T12:02:40.360Z,1.80
2022-08-05T12:05:39.688Z,2.03
2022-08-05T12:08:28.515Z,1.67
2022-08-05T12:11:21.407Z,1.52
2022-08-05T12:14:10.574Z,3.28
2022-08-05T12:16:59.095Z,3.60
2022-08-05T12:20:27.120Z,4.65
2022-08-05T12:23:11.744Z,2.22
2022-08-05T12:26:00.111Z,1.63
2022-08-05T12:28:48.483Z,2.13
2022-08-05T12:31:43.749Z,2.35
2022-08-05T12:34:39.125Z,3.45
2022-08-05T12:37:31.868Z,1.92
2022-08-05T12:40:26.817Z,3.78
2022-08-05T12:43:20.784Z,1.75
2022-08-05T12:46:28.789Z,4.50
2022-08-05T12:49:19.053Z,2.15
2022-08-05T12:52:23.925Z,1.45
2022-08-05T12:55:35.432Z,2.92
2022-08-05T12:58:38.644Z,1.40
2022-08-05T13:02:00.765Z,2.00
2022-08-05T13:04:54.517Z,1.67
2022-08-05T13:08:01.150Z,1.60
2022-08-05T13:10:51.173Z,1.40
2022-08-05T13:14:06.342Z,1.95
2022-08-05T13:16:56.610Z,3.92
2022-08-05T13:20:01.580Z,1.42
2022-08-05T13:22:51.291Z,1.00
2022-08-05T13:25:52.133Z,1.15
2022-08-05T13:28:48.838Z,1.20
2022-08-05T13:32:03.967Z,2.20
2022-08-05T13:34:52.085Z,1.08
2022-08-05T13:37:40.462Z,2.13
2022-08-05T13:40:42.463Z,1.15
2022-08-05T13:43:45.064Z,2.00
2022-08-05T13:47:05.008Z,0.95
2022-08-05T13:49:53.717Z,1.10
2022-08-05T13:52:42.373Z,3.72
2022-08-05T13:55:41.714Z,2.95
2022-08-05T13:58:37.702Z,1.23
2022-08-05T14:01:36.409Z,2.45
2022-08-05T14:04:55.821Z,0.77
2022-08-05T14:08:00.162Z,4.45
2022-08-05T14:10:53.950Z,1.83
2022-08-05T14:14:01.065Z,1.67
2022-08-05T14:16:51.054Z,1.83
2022-08-05T14:19:54.373Z,0.93
2022-08-05T14:22:50.273Z,1.08
2022-08-05T14:25:45.078Z,1.85
2022-08-05T14:28:34.111Z,4.10
2022-08-05T14:32:02.188Z,0.70
2022-08-05T14:34:35.036Z,1.30
2022-08-05T14:37:47.984Z,5.28
2022-08-05T14:40:33.928Z,1.90
2022-08-05T14:43:22.603Z,0.95
2022-08-05T14:46:31.476Z,1.20
2022-08-05T14:49:23.455Z,1.58
2022-08-05T14:52:52.031Z,1.05
2022-08-05T14:55:41.555Z,2.97
2022-08-05T14:58:29.972Z,0.80
2022-08-05T15:01:24.208Z,1.95
2022-08-05T15:04:27.413Z,0.85
2022-08-05T15:08:05.675Z,0.70
2022-08-05T15:10:28.745Z,4.57
2022-08-05T15:13:17.448Z,2.67
2022-08-05T15:16:06.752Z,2.50
2022-08-05T15:18:59.296Z,1.17
2022-08-05T15:21:49.361Z,0.52
2022-08-05T15:24:39.749Z,1.63
2022-08-05T15:27:35.910Z,3.13
2022-08-05T15:30:24.553Z,1.75
2022-08-05T15:33:56.774Z,2.25
2022-08-05T15:36:24.496Z,1.20
2022-08-05T15:41:04.090Z,1.80
2022-08-05T15:42:54.624Z,0.80
2022-08-05T15:45:38.286Z,1.10
2022-08-05T15:48:27.416Z,1.95
2022-08-05T15:51:16.015Z,3.20
2022-08-05T15:54:08.315Z,0.75
2022-08-05T15:56:57.078Z,1.75
2022-08-05T15:59:45.442Z,2.22
2022-08-05T16:02:35.993Z,2.45
2022-08-05T16:05:28.215Z,0.90
2022-08-05T16:08:16.946Z,1.05
2022-08-05T16:11:08.141Z,1.05
2022-08-05T16:13:56.766Z,1.10
2022-08-05T16:16:45.445Z,3.30
2022-08-05T16:20:05.400Z,3.22
2022-08-05T16:22:44.371Z,1.75
2022-08-05T16:25:34.616Z,0.82
2022-08-05T16:28:24.753Z,2.20
2022-08-05T16:31:16.454Z,1.38
2022-08-05T16:34:05.744Z,1.50
2022-08-05T16:36:59.587Z,1.15
2022-08-05T16:40:05.702Z,2.33
2022-08-05T16:42:55.870Z,2.50
2022-08-05T16:46:05.303Z,1.25
2022-08-05T16:48:52.847Z,1.85
2022-08-05T16:51:50.585Z,1.00
2022-08-05T16:54:44.542Z,1.05
2022-08-05T16:57:53.197Z,1.35
2022-08-05T17:00:42.261Z,1.63
2022-08-05T17:03:35.478Z,2.78
2022-08-05T17:06:24.521Z,2.25
2022-08-05T17:09:14.353Z,1.33
2022-08-05T17:12:04.621Z,1.48
2022-08-05T17:14:53.158Z,1.65
2022-08-05T17:17:42.454Z,2.90
2022-08-05T17:20:31.379Z,1.20
2022-08-05T17:24:05.965Z,3.08
2022-08-05T17:26:28.579Z,1.40
2022-08-05T17:29:22.783Z,2.67
2022-08-05T17:32:22.697Z,1.20
2022-08-05T17:35:15.501Z,1.70
2022-08-05T17:38:09.447Z,1.92
2022-08-05T17:40:59.171Z,3.28
2022-08-05T17:43:53.130Z,2.05
2022-08-05T17:46:44.168Z,2.55
2022-08-05T17:49:52.096Z,3.38
2022-08-05T17:52:53.336Z,1.90
2022-08-05T17:55:44.185Z,1.58
2022-08-05T17:58:35.232Z,2.42
2022-08-05T18:01:25.552Z,2.67
2022-08-05T18:04:21.150Z,1.15
2022-08-05T18:07:15.609Z,1.15
2022-08-05T18:10:10.184Z,2.47
2022-08-05T18:12:59.118Z,2.17
2022-08-05T18:15:50.223Z,1.48
2022-08-05T18:18:39.878Z,1.50
2022-08-05T18:22:08.962Z,2.25
2022-08-05T18:24:39.677Z,2.75
2022-08-05T18:27:28.465Z,1.33
2022-08-05T18:30:16.848Z,1.45
2022-08-05T18:33:06.064Z,2.95
2022-08-05T18:36:04.271Z,1.92
2022-08-05T18:38:57.995Z,3.22
2022-08-05T18:42:00.742Z,2.20
2022-08-05T18:44:56.435Z,1.25
2022-08-05T18:47:45.859Z,2.40
2022-08-05T18:50:55.190Z,1.52
2022-08-05T18:53:50.880Z,1.77
2022-08-05T18:56:40.659Z,2.45
2022-08-05T18:59:44.356Z,1.88
2022-08-05T19:02:38.338Z,2.38
2022-08-05T19:06:12.267Z,1.17
2022-08-05T19:08:35.672Z,2.28
2022-08-05T19:11:28.475Z,1.80
2022-08-05T19:14:53.184Z,1.20
2022-08-05T19:17:33.774Z,1.92
2022-08-05T19:20:35.530Z,1.75
2022-08-05T19:24:05.996Z,1.23
2022-08-05T19:26:33.754Z,3.08
2022-08-05T19:29:26.732Z,3.42
2022-08-05T19:32:26.373Z,0.90
2022-08-05T19:35:16.498Z,3.58
2022-08-05T19:38:06.633Z,3.28
2022-08-05T19:40:56.863Z,1.75
2022-08-05T19:44:06.887Z,3.60
2022-08-05T19:46:56.749Z,3.15
2022-08-05T19:49:48.123Z,1.90
2022-08-05T19:52:36.737Z,3.50
2022-08-05T19:56:13.829Z,1.10
2022-08-05T19:58:53.356Z,1.73
2022-08-05T20:01:42.337Z,1.63
2022-08-05T20:04:33.746Z,3.92
2022-08-05T20:07:48.135Z,1.42
2022-08-05T20:10:31.150Z,2.13
2022-08-05T20:13:29.851Z,3.45
2022-08-05T20:16:19.702Z,2.08
2022-08-05T20:19:13.707Z,2.47
2022-08-05T20:22:06.453Z,1.17
2022-08-05T20:24:58.546Z,2.70
2022-08-05T20:27:47.114Z,1.60
2022-08-05T20:30:38.702Z,1.67
2022-08-05T20:33:27.419Z,1.80
2022-08-05T20:36:20.564Z,2.97
2022-08-05T20:39:10.592Z,1.38
2022-08-05T20:42:01.959Z,2.03
2022-08-05T20:44:50.693Z,1.30
2022-08-05T20:47:41.214Z,2.08
2022-08-05T20:50:30.392Z,1.48
2022-08-05T20:53:37.169Z,3.35
2022-08-05T20:56:34.084Z,1.95
2022-08-05T21:00:10.258Z,1.63
2022-08-05T21:02:39.695Z,2.60
2022-08-05T21:05:54.312Z,1.35
2022-08-05T21:08:44.297Z,1.53
2022-08-05T21:12:10.287Z,1.38
2022-08-05T21:14:43.323Z,3.72
2022-08-05T21:17:32.154Z,1.97
2022-08-05T21:20:33.500Z,2.75
2022-08-05T21:23:24.310Z,3.93
2022-08-05T21:26:15.114Z,1.90
2022-08-05T21:29:06.970Z,3.57
2022-08-05T21:32:20.019Z,1.80
2022-08-05T21:35:18.363Z,2.20
2022-08-05T21:38:19.033Z,3.07
2022-08-05T21:41:08.160Z,2.07
2022-08-05T21:44:01.566Z,3.00
2022-08-05T21:46:58.052Z,2.05
2022-08-05T21:49:58.908Z,3.57
2022-08-05T21:52:49.052Z,2.33
2022-08-05T21:55:42.768Z,1.43
2022-08-05T21:58:57.436Z,2.93
2022-08-05T22:05:48.385Z,3.27
2022-08-05T22:08:37.576Z,2.77
2022-08-05T22:15:02.028Z,4.17
2022-08-05T22:47:55.351Z,2.37
2022-08-05T22:54:46.674Z,3.77
2022-08-05T22:57:37.606Z,3.87
2022-08-05T23:00:26.481Z,2.80
2022-08-05T23:03:15.796Z,4.60
2022-08-05T23:06:04.611Z,4.17
2022-08-05T23:08:54.827Z,3.93
2022-08-05T23:11:49.205Z,5.87
2022-08-05T23:14:38.962Z,1.83
2022-08-05T23:17:37.164Z,2.03
2022-08-05T23:20:43.198Z,4.27
2022-08-05T23:23:33.817Z,4.73
2022-08-05T23:26:22.671Z,2.73
2022-08-05T23:29:17.481Z,1.53
2022-08-05T23:32:08.315Z,4.80
2022-08-05T23:34:59.259Z,4.67
2022-08-05T23:37:48.027Z,3.37
2022-08-05T23:40:37.014Z,3.03
2022-08-05T23:44:03.705Z,2.13
2022-08-05T23:46:39.287Z,1.67
2022-08-05T23:49:35.772Z,4.10
2022-08-05T23:52:29.393Z,2.20
2022-08-05T23:55:20.019Z,4.07
2022-08-05T23:58:32.338Z,5.63
